createdAt,value
2023-01-13T00:01:10.222Z,15.07
2023-01-13T00:03:37.863Z,15.05
2023-01-13T00:06:06.274Z,15.40
2023-01-13T00:08:33.543Z,15.43
2023-01-13T00:11:00.555Z,15.48
2023-01-13T00:13:27.541Z,15.52
2023-01-13T00:16:02.109Z,15.52
2023-01-13T00:18:29.317Z,15.75
2023-01-13T00:21:08.813Z,16.17
2023-01-13T00:23:36.454Z,15.75
2023-01-13T00:26:06.458Z,15.65
2023-01-13T00:28:33.630Z,15.20
2023-01-13T00:31:08.788Z,15.48
2023-01-13T00:33:36.313Z,16.33
2023-01-13T00:36:05.270Z,15.40
2023-01-13T00:38:33.707Z,15.35
2023-01-13T00:41:07.513Z,15.27
2023-01-13T00:43:36.032Z,15.65
2023-01-13T00:46:04.549Z,15.20
2023-01-13T00:48:32.638Z,15.15
2023-01-13T00:51:06.994Z,15.20
2023-01-13T00:53:38.214Z,15.20
2023-01-13T00:56:39.622Z,15.10
2023-01-13T00:59:10.926Z,14.80
2023-01-13T01:01:38.223Z,15.45
2023-01-13T01:04:05.556Z,15.20
2023-01-13T01:06:32.494Z,15.13
2023-01-13T01:08:59.470Z,14.95
2023-01-13T01:11:29.331Z,15.55
2023-01-13T01:13:58.127Z,15.05
2023-01-13T01:16:27.075Z,15.10
2023-01-13T01:18:55.077Z,15.10
2023-01-13T01:21:23.436Z,15.25
2023-01-13T01:23:50.719Z,15.70
2023-01-13T01:26:20.474Z,15.20
2023-01-13T01:28:48.110Z,15.75
2023-01-13T01:31:28.666Z,15.90
2023-01-13T01:33:55.989Z,15.15
2023-01-13T01:36:26.848Z,15.57
2023-01-13T01:38:55.800Z,15.35
2023-01-13T01:41:26.394Z,15.18
2023-01-13T01:44:30.602Z,15.48
2023-01-13T01:46:58.133Z,15.70
2023-01-13T01:49:29.913Z,15.25
2023-01-13T01:52:06.754Z,15.45
2023-01-13T01:54:52.327Z,15.65
2023-01-13T01:57:35.443Z,15.82
2023-01-13T02:00:07.006Z,15.05
2023-01-13T02:02:34.298Z,14.93
2023-01-13T02:05:01.592Z,15.00
2023-01-13T02:07:32.208Z,14.68
2023-01-13T02:10:04.178Z,15.07
2023-01-13T02:12:32.458Z,15.32
2023-01-13T02:15:09.075Z,15.13
2023-01-13T02:18:06.913Z,15.05
2023-01-13T02:20:40.007Z,14.88
2023-01-13T02:23:32.846Z,15.93
2023-01-13T02:26:40.714Z,14.65
2023-01-13T02:29:51.446Z,15.02
2023-01-13T02:32:30.758Z,14.95
2023-01-13T02:35:07.146Z,15.27
2023-01-13T02:37:39.043Z,15.25
2023-01-13T02:40:33.777Z,15.48
2023-01-13T02:46:15.804Z,15.07
2023-01-13T02:48:46.099Z,15.60
2023-01-13T02:51:17.556Z,16.17
2023-01-13T02:53:55.159Z,15.82
2023-01-13T02:56:24.323Z,15.82
2023-01-13T02:58:53.111Z,16.00
2023-01-13T03:01:20.345Z,16.23
2023-01-13T03:03:47.465Z,16.50
2023-01-13T03:06:37.709Z,16.50
2023-01-13T03:09:11.831Z,16.20
2023-01-13T03:12:14.905Z,16.63
2023-01-13T03:14:44.542Z,16.45
2023-01-13T03:17:52.810Z,16.50
2023-01-13T03:20:26.564Z,16.88
2023-01-13T03:23:23.953Z,16.45
2023-01-13T03:26:02.899Z,17.02
2023-01-13T03:28:41.041Z,16.75
2023-01-13T03:31:14.205Z,16.42
2023-01-13T03:34:07.788Z,17.07
2023-01-13T03:36:37.511Z,16.42
2023-01-13T03:39:09.200Z,16.63
2023-01-13T03:41:46.303Z,16.77
2023-01-13T03:44:24.623Z,16.60
2023-01-13T03:46:51.552Z,16.55
2023-01-13T03:49:23.884Z,16.25
2023-01-13T03:51:56.967Z,16.25
2023-01-13T03:54:28.720Z,16.00
2023-01-13T03:57:01.865Z,15.77
2023-01-13T03:59:36.077Z,16.20
2023-01-13T04:02:29.491Z,16.05
2023-01-13T04:05:00.879Z,15.30
2023-01-13T04:07:40.804Z,15.57
2023-01-13T04:10:10.311Z,15.48
2023-01-13T04:13:03.104Z,15.10
2023-01-13T04:15:34.131Z,15.13
2023-01-13T04:18:11.821Z,15.38
2023-01-13T04:20:40.088Z,15.90
2023-01-13T04:23:07.427Z,15.32
2023-01-13T04:25:34.824Z,15.30
2023-01-13T04:28:02.066Z,15.38
2023-01-13T04:30:29.368Z,15.27
2023-01-13T04:32:56.414Z,15.68
2023-01-13T04:35:23.473Z,17.10
2023-01-13T04:37:50.603Z,15.30
2023-01-13T04:40:17.682Z,15.13
2023-01-13T04:42:45.510Z,15.25
2023-01-13T04:45:13.214Z,15.27
2023-01-13T04:47:41.975Z,15.75
2023-01-13T04:50:10.473Z,14.98
2023-01-13T04:52:38.280Z,15.10
2023-01-13T04:55:05.832Z,15.13
2023-01-13T04:57:35.196Z,15.75
2023-01-13T05:00:02.219Z,15.48
2023-01-13T05:02:29.175Z,14.98
2023-01-13T05:04:56.213Z,15.45
2023-01-13T05:07:23.269Z,16.05
2023-01-13T05:09:50.219Z,16.45
2023-01-13T05:12:35.811Z,16.38
2023-01-13T05:15:21.640Z,15.85
2023-01-13T05:17:48.996Z,15.50
2023-01-13T05:20:16.083Z,15.82
2023-01-13T05:23:01.428Z,16.30
2023-01-13T05:25:28.480Z,15.70
2023-01-13T05:27:58.460Z,16.20
2023-01-13T05:30:31.252Z,15.82
2023-01-13T05:32:58.456Z,15.90
2023-01-13T05:35:25.801Z,15.68
2023-01-13T05:37:54.465Z,15.43
2023-01-13T05:40:40.948Z,15.45
2023-01-13T05:43:22.482Z,15.32
2023-01-13T05:45:51.098Z,15.80
2023-01-13T05:48:20.341Z,15.52
2023-01-13T05:50:47.857Z,15.23
2023-01-13T05:53:14.951Z,15.27
2023-01-13T05:55:42.941Z,15.52
2023-01-13T05:58:11.411Z,15.70
2023-01-13T06:00:41.036Z,15.82
2023-01-13T06:03:09.491Z,15.43
2023-01-13T06:05:36.954Z,15.38
2023-01-13T06:08:05.866Z,15.27
2023-01-13T06:10:33.980Z,15.43
2023-01-13T06:13:01.117Z,15.65
2023-01-13T06:15:28.177Z,15.27
2023-01-13T06:17:56.571Z,15.52
2023-01-13T06:20:24.929Z,15.82
2023-01-13T06:22:53.938Z,15.70
2023-01-13T06:25:42.043Z,15.55
2023-01-13T06:28:09.265Z,15.90
2023-01-13T06:30:42.126Z,16.08
2023-01-13T06:33:14.816Z,21.98
2023-01-13T06:35:45.877Z,18.65
2023-01-13T06:38:16.931Z,15.77
2023-01-13T06:40:44.000Z,16.48
2023-01-13T06:43:17.803Z,16.85
2023-01-13T06:45:51.915Z,17.15
2023-01-13T06:48:24.637Z,15.70
2023-01-13T06:50:51.864Z,15.55
2023-01-13T06:53:19.067Z,15.38
2023-01-13T06:55:46.054Z,15.98
2023-01-13T06:58:13.112Z,15.30
2023-01-13T07:00:40.213Z,16.63
2023-01-13T07:03:09.041Z,15.93
2023-01-13T07:05:36.059Z,15.98
2023-01-13T07:08:03.068Z,16.58
2023-01-13T07:10:31.151Z,17.60
2023-01-13T07:13:19.769Z,17.35
2023-01-13T07:16:05.313Z,17.45
2023-01-13T07:18:34.497Z,17.17
2023-01-13T07:21:09.593Z,17.70
2023-01-13T07:23:41.534Z,16.75
2023-01-13T07:26:09.775Z,15.63
2023-01-13T07:28:37.801Z,15.75
2023-01-13T07:31:05.546Z,15.75
2023-01-13T07:33:33.454Z,15.68
2023-01-13T07:36:05.245Z,15.50
2023-01-13T07:38:33.490Z,15.20
2023-01-13T07:41:24.429Z,15.25
2023-01-13T07:43:52.360Z,18.77
2023-01-13T07:46:19.752Z,17.92
2023-01-13T07:48:47.441Z,16.90
2023-01-13T07:51:14.416Z,16.00
2023-01-13T07:53:41.448Z,16.23
2023-01-13T07:56:08.969Z,16.90
2023-01-13T07:58:37.102Z,15.90
2023-01-13T08:01:12.517Z,15.10
2023-01-13T08:03:40.789Z,16.40
2023-01-13T08:06:08.194Z,15.80
2023-01-13T08:08:35.549Z,16.70
2023-01-13T08:11:04.225Z,16.58
2023-01-13T08:13:31.291Z,16.52
2023-01-13T08:16:09.824Z,16.15
2023-01-13T08:18:38.406Z,16.45
2023-01-13T08:21:08.416Z,16.25
2023-01-13T08:23:35.959Z,16.50
2023-01-13T08:26:06.195Z,16.60
2023-01-13T08:28:33.322Z,17.20
2023-01-13T08:31:03.173Z,15.90
2023-01-13T08:33:31.031Z,16.45
2023-01-13T08:35:58.484Z,16.15
2023-01-13T08:38:25.792Z,16.30
2023-01-13T08:40:53.075Z,16.48
2023-01-13T08:43:20.164Z,17.35
2023-01-13T08:45:59.642Z,16.10
2023-01-13T08:48:30.479Z,16.00
2023-01-13T08:51:09.041Z,16.45
2023-01-13T08:53:36.099Z,16.50
2023-01-13T08:56:07.867Z,16.25
2023-01-13T08:58:34.835Z,15.48
2023-01-13T09:01:06.052Z,15.35
2023-01-13T09:03:33.197Z,14.90
2023-01-13T09:06:00.180Z,15.32
2023-01-13T09:08:27.177Z,14.82
2023-01-13T09:10:54.518Z,15.10
2023-01-13T09:13:21.938Z,15.25
2023-01-13T09:15:49.124Z,15.30
2023-01-13T09:18:16.145Z,15.40
2023-01-13T09:20:44.651Z,16.08
2023-01-13T09:23:11.753Z,15.32
2023-01-13T09:25:39.632Z,15.30
2023-01-13T09:28:08.707Z,15.15
2023-01-13T09:30:36.594Z,15.23
2023-01-13T09:33:22.070Z,15.50
2023-01-13T09:35:49.073Z,16.50
2023-01-13T09:38:16.054Z,16.80
2023-01-13T09:40:44.096Z,18.08
2023-01-13T09:43:44.303Z,17.45
2023-01-13T09:46:38.182Z,17.63
2023-01-13T09:49:05.509Z,18.10
2023-01-13T09:51:50.188Z,17.85
2023-01-13T09:54:32.252Z,18.55
2023-01-13T09:57:00.075Z,17.92
2023-01-13T09:59:32.677Z,18.10
2023-01-13T10:02:23.432Z,17.67
2023-01-13T10:05:21.371Z,18.60
2023-01-13T10:08:02.825Z,17.90
2023-01-13T10:10:45.371Z,17.55
2023-01-13T10:13:29.997Z,17.15
2023-01-13T10:16:10.880Z,17.45
2023-01-13T10:18:56.678Z,17.50
2023-01-13T10:21:35.461Z,19.65
2023-01-13T10:24:27.688Z,20.08
2023-01-13T10:27:05.431Z,22.88
2023-01-13T10:29:33.323Z,27.17
2023-01-13T10:32:00.902Z,21.55
2023-01-13T10:34:28.890Z,23.05
2023-01-13T10:37:06.660Z,21.70
2023-01-13T10:39:45.073Z,22.52
2023-01-13T10:42:17.946Z,22.17
2023-01-13T10:45:03.744Z,22.55
2023-01-13T10:47:36.039Z,20.30
2023-01-13T10:50:09.813Z,20.48
2023-01-13T10:52:43.115Z,21.45
2023-01-13T10:55:33.412Z,21.75
2023-01-13T10:58:18.391Z,19.55
2023-01-13T11:00:46.846Z,22.25
2023-01-13T11:03:23.775Z,19.83
2023-01-13T11:06:00.529Z,19.58
2023-01-13T11:08:30.955Z,20.98
2023-01-13T11:10:59.691Z,20.65
2023-01-13T11:13:59.842Z,19.60
2023-01-13T11:16:28.157Z,20.65
2023-01-13T11:19:14.131Z,22.73
2023-01-13T11:22:06.839Z,20.95
2023-01-13T11:24:42.568Z,20.88
2023-01-13T11:27:38.552Z,21.60
2023-01-13T11:30:21.285Z,21.60
2023-01-13T11:33:03.833Z,20.00
2023-01-13T11:35:34.269Z,20.85
2023-01-13T11:38:15.675Z,19.90
2023-01-13T11:40:49.346Z,19.90
2023-01-13T11:43:28.278Z,20.10
2023-01-13T11:46:01.168Z,19.88
2023-01-13T11:48:31.652Z,20.00
2023-01-13T11:51:13.868Z,27.75
2023-01-13T11:53:46.943Z,20.75
2023-01-13T11:56:27.725Z,20.23
2023-01-13T11:59:14.828Z,21.25
2023-01-13T12:02:19.103Z,20.48
2023-01-13T12:05:20.312Z,20.33
2023-01-13T12:08:18.265Z,21.05
2023-01-13T12:10:54.167Z,20.98
2023-01-13T12:13:39.122Z,20.45
2023-01-13T12:16:23.893Z,20.58
2023-01-13T12:19:18.474Z,24.98
2023-01-13T12:21:57.123Z,21.83
2023-01-13T12:24:32.948Z,20.80
2023-01-13T12:27:05.921Z,24.00
2023-01-13T12:29:35.851Z,21.90
2023-01-13T12:32:08.003Z,21.95
2023-01-13T12:34:55.769Z,20.92
2023-01-13T12:37:27.090Z,22.65
2023-01-13T12:40:30.724Z,19.27
2023-01-13T12:43:38.697Z,19.00
2023-01-13T12:46:23.376Z,19.40
2023-01-13T12:48:55.327Z,18.63
2023-01-13T12:51:27.428Z,20.80
2023-01-13T12:53:56.470Z,21.98
2023-01-13T12:56:31.602Z,21.80
2023-01-13T12:59:17.199Z,20.38
2023-01-13T13:01:45.668Z,20.20
2023-01-13T13:04:14.341Z,21.17
2023-01-13T13:07:05.181Z,19.60
2023-01-13T13:09:45.004Z,20.80
2023-01-13T13:12:49.415Z,20.83
2023-01-13T13:15:37.252Z,19.60
2023-01-13T13:18:24.013Z,18.60
2023-01-13T13:21:02.357Z,19.52
2023-01-13T13:23:35.612Z,18.27
2023-01-13T13:26:20.545Z,18.60
2023-01-13T13:29:11.989Z,18.35
2023-01-13T13:32:02.694Z,19.98
2023-01-13T13:34:48.259Z,19.75
2023-01-13T13:37:33.023Z,18.98
2023-01-13T13:40:27.417Z,18.85
2023-01-13T13:43:16.443Z,18.42
2023-01-13T13:46:11.173Z,17.85
2023-01-13T13:51:41.511Z,19.23
2023-01-13T13:54:19.526Z,19.02
2023-01-13T13:56:48.910Z,18.75
2023-01-13T13:59:27.956Z,19.38
2023-01-13T14:02:03.763Z,20.27
2023-01-13T14:04:33.453Z,19.48
2023-01-13T14:07:20.792Z,19.92
2023-01-13T14:09:54.476Z,20.08
2023-01-13T14:12:26.134Z,22.10
2023-01-13T14:14:57.612Z,20.10
2023-01-13T14:17:27.197Z,19.45
2023-01-13T14:20:05.243Z,21.20
2023-01-13T14:22:32.995Z,20.98
2023-01-13T14:25:02.030Z,20.48
2023-01-13T14:27:30.593Z,19.75
2023-01-13T14:30:00.272Z,24.02
2023-01-13T14:32:36.731Z,25.35
2023-01-13T14:35:07.403Z,21.00
2023-01-13T14:37:41.895Z,19.60
2023-01-13T14:40:33.678Z,20.38
2023-01-13T14:43:01.604Z,20.00
2023-01-13T14:45:29.352Z,19.95
2023-01-13T14:48:00.647Z,22.23
2023-01-13T14:50:33.981Z,22.00
2023-01-13T14:53:01.660Z,20.88
2023-01-13T14:55:34.492Z,20.75
2023-01-13T14:58:23.494Z,26.05
2023-01-13T15:00:51.928Z,20.15
2023-01-13T15:03:20.736Z,20.45
2023-01-13T15:05:52.944Z,20.67
2023-01-13T15:08:29.451Z,25.42
2023-01-13T15:11:01.570Z,24.25
2023-01-13T15:14:10.544Z,19.13
2023-01-13T15:16:37.523Z,26.38
2023-01-13T15:19:04.600Z,25.15
2023-01-13T15:21:31.772Z,23.75
2023-01-13T15:24:00.016Z,25.63
2023-01-13T15:26:29.413Z,34.42
2023-01-13T15:28:58.302Z,38.60
2023-01-13T15:31:26.332Z,20.65
2023-01-13T15:33:54.042Z,20.40
2023-01-13T15:36:30.008Z,23.17
2023-01-13T15:38:57.949Z,22.50
2023-01-13T15:41:43.654Z,19.65
2023-01-13T15:44:31.296Z,21.85
2023-01-13T15:47:01.694Z,20.40
2023-01-13T15:49:37.432Z,21.08
2023-01-13T15:52:12.220Z,23.80
2023-01-13T15:54:41.197Z,23.25
2023-01-13T15:57:39.070Z,21.20
2023-01-13T16:00:13.965Z,22.90
2023-01-13T16:02:41.066Z,21.17
2023-01-13T16:05:08.291Z,22.08
2023-01-13T16:07:35.327Z,20.10
2023-01-13T16:10:04.984Z,21.38
2023-01-13T16:12:32.394Z,19.52
2023-01-13T16:14:59.491Z,23.33
2023-01-13T16:17:30.423Z,20.40
2023-01-13T16:19:57.371Z,26.63
2023-01-13T16:22:24.352Z,21.80
2023-01-13T16:24:51.334Z,21.75
2023-01-13T16:27:23.532Z,19.85
2023-01-13T16:29:52.054Z,22.98
2023-01-13T16:32:21.055Z,20.42
2023-01-13T16:34:48.633Z,20.35
2023-01-13T16:37:25.707Z,21.63
2023-01-13T16:39:54.028Z,21.27
2023-01-13T16:42:21.526Z,22.73
2023-01-13T16:44:49.278Z,20.58
2023-01-13T16:47:17.896Z,23.60
2023-01-13T16:49:45.199Z,23.92
2023-01-13T16:52:12.412Z,24.23
2023-01-13T16:54:39.506Z,26.95
2023-01-13T16:57:07.940Z,24.70
2023-01-13T16:59:34.944Z,23.30
2023-01-13T17:02:02.377Z,21.58
2023-01-13T17:04:29.503Z,20.30
2023-01-13T17:07:03.101Z,22.20
2023-01-13T17:09:30.544Z,21.67
2023-01-13T17:11:57.950Z,19.73
2023-01-13T17:14:25.477Z,25.13
2023-01-13T17:16:55.184Z,20.38
2023-01-13T17:19:23.471Z,19.85
2023-01-13T17:21:53.572Z,20.85
2023-01-13T17:24:20.977Z,21.17
2023-01-13T17:26:50.560Z,20.20
2023-01-13T17:29:23.636Z,22.80
2023-01-13T17:31:51.925Z,21.43
2023-01-13T17:34:20.362Z,20.98
2023-01-13T17:36:47.737Z,24.73
2023-01-13T17:39:23.654Z,22.33
2023-01-13T17:41:51.486Z,19.75
2023-01-13T17:44:20.093Z,24.77
2023-01-13T17:46:47.826Z,27.27
2023-01-13T17:49:17.581Z,22.85
2023-01-13T17:51:48.262Z,22.02
2023-01-13T17:54:15.836Z,20.10
2023-01-13T17:56:43.663Z,19.85
2023-01-13T17:59:15.406Z,21.75
2023-01-13T18:01:42.990Z,19.58
2023-01-13T18:04:18.514Z,22.77
2023-01-13T18:06:45.798Z,21.42
2023-01-13T18:09:12.987Z,19.80
2023-01-13T18:11:40.008Z,26.60
2023-01-13T18:14:08.292Z,20.15
2023-01-13T18:16:35.555Z,20.20
2023-01-13T18:19:21.385Z,22.95
2023-01-13T18:22:06.995Z,20.42
2023-01-13T18:24:52.941Z,28.95
2023-01-13T18:27:27.459Z,22.55
2023-01-13T18:29:56.288Z,26.48
2023-01-13T18:32:26.530Z,19.77
2023-01-13T18:35:04.757Z,21.77
2023-01-13T18:37:32.924Z,22.40
2023-01-13T18:39:59.855Z,23.38
2023-01-13T18:42:45.248Z,21.35
2023-01-13T18:45:12.209Z,21.00
2023-01-13T18:47:40.844Z,19.58
2023-01-13T18:50:09.162Z,22.98
2023-01-13T18:52:36.736Z,19.88
2023-01-13T18:55:04.069Z,18.83
2023-01-13T18:57:31.113Z,20.17
2023-01-13T18:59:58.251Z,22.77
2023-01-13T19:02:27.884Z,18.95
2023-01-13T19:04:55.381Z,19.65
2023-01-13T19:07:24.455Z,18.70
2023-01-13T19:09:51.513Z,18.50
2023-01-13T19:12:26.145Z,21.52
2023-01-13T19:14:54.548Z,18.63
2023-01-13T19:17:22.792Z,18.10
2023-01-13T19:19:52.804Z,21.15
2023-01-13T19:22:23.297Z,20.25
2023-01-13T19:24:50.982Z,21.45
2023-01-13T19:27:19.442Z,22.50
2023-01-13T19:29:51.917Z,17.65
2023-01-13T19:32:22.939Z,18.42
2023-01-13T19:34:51.289Z,17.48
2023-01-13T19:37:19.504Z,19.35
2023-01-13T19:39:46.841Z,20.55
2023-01-13T19:42:32.660Z,17.63
2023-01-13T19:45:18.369Z,17.90
2023-01-13T19:47:46.062Z,17.60
2023-01-13T19:50:13.776Z,17.90
2023-01-13T19:52:42.480Z,16.98
2023-01-13T19:55:11.855Z,17.55
2023-01-13T19:57:43.540Z,18.63
2023-01-13T20:00:12.094Z,17.67
2023-01-13T20:02:44.935Z,18.98
2023-01-13T20:05:15.397Z,17.42
2023-01-13T20:07:42.539Z,17.02
2023-01-13T20:10:10.220Z,17.42
2023-01-13T20:12:37.256Z,19.77
2023-01-13T20:15:04.858Z,17.10
2023-01-13T20:17:32.054Z,17.05
2023-01-13T20:19:59.344Z,17.35
2023-01-13T20:22:26.485Z,17.45
2023-01-13T20:24:55.421Z,18.60
2023-01-13T20:27:24.136Z,17.27
2023-01-13T20:29:51.588Z,16.83
2023-01-13T20:32:18.879Z,17.33
2023-01-13T20:34:45.922Z,16.80
2023-01-13T20:37:12.972Z,16.98
2023-01-13T20:39:42.948Z,17.33
2023-01-13T20:42:28.414Z,17.17
2023-01-13T20:44:59.865Z,16.90
2023-01-13T20:47:28.550Z,16.58
2023-01-13T20:49:55.607Z,17.13
2023-01-13T20:52:22.745Z,17.40
2023-01-13T20:54:49.818Z,17.50
2023-01-13T20:57:19.856Z,17.30
2023-01-13T20:59:46.886Z,17.15
2023-01-13T21:02:15.436Z,17.42
2023-01-13T21:04:42.791Z,17.08
2023-01-13T21:07:10.095Z,18.48
2023-01-13T21:09:37.294Z,17.63
2023-01-13T21:12:23.181Z,18.15
2023-01-13T21:15:08.981Z,22.75
2023-01-13T21:17:54.872Z,17.98
2023-01-13T21:20:22.077Z,18.95
2023-01-13T21:22:49.743Z,17.02
2023-01-13T21:25:18.696Z,17.83
2023-01-13T21:27:45.909Z,17.67
2023-01-13T21:30:14.970Z,19.98
2023-01-13T21:32:43.456Z,21.02
2023-01-13T21:35:11.754Z,17.27
2023-01-13T21:37:40.334Z,18.27
2023-01-13T21:40:10.264Z,19.80
2023-01-13T21:42:55.957Z,17.67
2023-01-13T21:45:42.169Z,17.95
2023-01-13T21:48:09.297Z,19.02
2023-01-13T21:50:37.982Z,17.85
2023-01-13T21:53:05.387Z,17.90
2023-01-13T21:55:32.984Z,18.67
2023-01-13T21:58:12.320Z,17.60
2023-01-13T22:00:43.309Z,17.70
2023-01-13T22:03:11.924Z,18.70
2023-01-13T22:05:39.063Z,17.38
2023-01-13T22:08:07.195Z,19.25
2023-01-13T22:10:34.901Z,17.95
2023-01-13T22:13:22.829Z,17.85
2023-01-13T22:15:50.018Z,17.95
2023-01-13T22:18:18.432Z,21.33
2023-01-13T22:20:46.192Z,18.45
2023-01-13T22:23:13.698Z,18.25
2023-01-13T22:25:40.836Z,18.48
2023-01-13T22:28:09.370Z,18.80
2023-01-13T22:30:36.803Z,18.15
2023-01-13T22:33:03.883Z,19.40
2023-01-13T22:35:30.932Z,17.55
2023-01-13T22:37:58.445Z,18.75
2023-01-13T22:40:25.418Z,18.08
2023-01-13T22:42:52.396Z,18.42
2023-01-13T22:45:19.410Z,19.67
2023-01-13T22:47:47.709Z,17.85
2023-01-13T22:50:16.711Z,29.00
2023-01-13T22:52:43.730Z,18.25
2023-01-13T22:55:10.719Z,17.63
2023-01-13T22:57:47.276Z,20.65
2023-01-13T23:00:19.030Z,18.23
2023-01-13T23:02:46.404Z,21.27
2023-01-13T23:05:14.028Z,18.30
2023-01-13T23:07:41.364Z,16.98
2023-01-13T23:10:09.032Z,17.17
2023-01-13T23:12:36.080Z,21.15
2023-01-13T23:15:03.987Z,17.00
2023-01-13T23:17:30.996Z,17.00
2023-01-13T23:19:57.958Z,19.73
2023-01-13T23:22:24.916Z,20.80
2023-01-13T23:24:51.885Z,19.00
2023-01-13T23:27:18.984Z,17.10
2023-01-13T23:29:45.975Z,17.48
2023-01-13T23:32:12.999Z,16.80
2023-01-13T23:34:39.917Z,16.33
2023-01-13T23:37:06.935Z,18.35
2023-01-13T23:39:33.865Z,17.05
2023-01-13T23:42:00.994Z,16.65
2023-01-13T23:44:27.964Z,16.85
2023-01-13T23:46:55.005Z,16.45
2023-01-13T23:49:22.030Z,16.58
2023-01-13T23:51:52.753Z,17.02
2023-01-13T23:54:20.159Z,16.98
2023-01-13T23:56:50.292Z,18.38
2023-01-13T23:59:17.239Z,19.27
